RZO134 LPLA-LPPT
Flight info
| Callsign | RZO134 |
|---|---|
| Flight time | 2h 6m |
| Altitude | 37000 |
| Route | MIPRU DCT PODEL DCT 36N020W DCT LUTAK/N0451F360 DCT ESUTI |
| Aircraft | A320/M-SDE1FGHIRWXY/S |
Departure
| Time | 2026-04-16 20:31 |
|---|---|
| Airport | Lajes Airport (LPLA) |
Arrival
| Time | 2026-04-16 22:37 |
|---|---|
| Airport | Lisbon Humberto Delgado Airport (LPPT) |
| Time | Latitude | Longitude | Altitude | Speed | Heading |
|---|---|---|---|---|---|
| 2026-04-16 20:12 | 38.75602 | -27.08789 | 179 ft | 0 kts | 275° |
| 2026-04-16 20:23 | 38.75602 | -27.08787 | 178 ft | 2 kts | 275° |
| 2026-04-16 20:24 | 38.75603 | -27.08756 | 178 ft | 4 kts | 247° |
| 2026-04-16 20:24 | 38.75614 | -27.08737 | 178 ft | 4 kts | 165° |
| 2026-04-16 20:24 | 38.75622 | -27.08742 | 178 ft | 1 kts | 140° |
| 2026-04-16 20:24 | 38.75623 | -27.08743 | 178 ft | 0 kts | 140° |
| 2026-04-16 20:27 | 38.75616 | -27.08735 | 178 ft | 5 kts | 139° |
| 2026-04-16 20:27 | 38.75541 | -27.08655 | 178 ft | 11 kts | 140° |
| 2026-04-16 20:28 | 38.75484 | -27.08595 | 178 ft | 9 kts | 139° |
| 2026-04-16 20:28 | 38.75463 | -27.08553 | 178 ft | 7 kts | 105° |
| 2026-04-16 20:28 | 38.75485 | -27.08495 | 178 ft | 4 kts | 50° |
| 2026-04-16 20:28 | 38.75496 | -27.08476 | 178 ft | 4 kts | 53° |
| 2026-04-16 20:29 | 38.75509 | -27.08454 | 178 ft | 3 kts | 53° |
| 2026-04-16 20:29 | 38.75525 | -27.08430 | 178 ft | 7 kts | 43° |
| 2026-04-16 20:29 | 38.75572 | -27.08441 | 179 ft | 7 kts | 324° |
| 2026-04-16 20:29 | 38.75582 | -27.08451 | 179 ft | 0 kts | 321° |
| 2026-04-16 20:30 | 38.75593 | -27.08463 | 179 ft | 13 kts | 321° |
| 2026-04-16 20:30 | 38.75876 | -27.08758 | 181 ft | 87 kts | 321° |
| 2026-04-16 20:30 | 38.76505 | -27.09416 | 179 ft | 144 kts | 321° |
| 2026-04-16 20:31 | 38.77337 | -27.10272 | 591 ft | 155 kts | 322° |
| 2026-04-16 20:31 | 38.78245 | -27.11161 | 1003 ft | 173 kts | 324° |
| 2026-04-16 20:31 | 38.79296 | -27.11996 | 1588 ft | 181 kts | 328° |
| 2026-04-16 20:31 | 38.80539 | -27.12590 | 1943 ft | 209 kts | 350° |
| 2026-04-16 20:32 | 38.82084 | -27.12253 | 2125 ft | 247 kts | 30° |
| 2026-04-16 20:32 | 38.83275 | -27.10571 | 2659 ft | 268 kts | 68° |
| 2026-04-16 20:32 | 38.83485 | -27.08205 | 3435 ft | 272 kts | 104° |
| 2026-04-16 20:32 | 38.82618 | -27.06085 | 4249 ft | 272 kts | 140° |
| 2026-04-16 20:33 | 38.81033 | -27.04822 | 5126 ft | 269 kts | 163° |
| 2026-04-16 20:33 | 38.79245 | -27.04115 | 6041 ft | 270 kts | 170° |
| 2026-04-16 20:33 | 38.77442 | -27.03340 | 6873 ft | 279 kts | 158° |
| 2026-04-16 20:33 | 38.75832 | -27.01879 | 7677 ft | 291 kts | 139° |
| 2026-04-16 20:34 | 38.74432 | -26.99977 | 8532 ft | 295 kts | 137° |
| 2026-04-16 20:34 | 38.73013 | -26.98046 | 9351 ft | 299 kts | 137° |
| 2026-04-16 20:34 | 38.71570 | -26.96088 | 10136 ft | 305 kts | 138° |
| 2026-04-16 20:34 | 38.70078 | -26.94066 | 10557 ft | 324 kts | 137° |
| 2026-04-16 20:35 | 38.68474 | -26.91898 | 10782 ft | 347 kts | 137° |
| 2026-04-16 20:35 | 38.66751 | -26.89571 | 10971 ft | 371 kts | 137° |
| 2026-04-16 20:35 | 38.64947 | -26.87131 | 11442 ft | 382 kts | 137° |
| 2026-04-16 20:35 | 38.63115 | -26.84641 | 12115 ft | 386 kts | 137° |
| 2026-04-16 20:36 | 38.61271 | -26.82125 | 12788 ft | 391 kts | 137° |
| 2026-04-16 20:36 | 38.59341 | -26.79497 | 13478 ft | 395 kts | 137° |
| 2026-04-16 20:36 | 38.57499 | -26.76996 | 14108 ft | 400 kts | 137° |
| 2026-04-16 20:36 | 38.55584 | -26.74398 | 14709 ft | 403 kts | 136° |
| 2026-04-16 20:37 | 38.53648 | -26.71779 | 15298 ft | 407 kts | 137° |
| 2026-04-16 20:37 | 38.51693 | -26.69140 | 15895 ft | 411 kts | 137° |
| 2026-04-16 20:37 | 38.49720 | -26.66483 | 16486 ft | 414 kts | 137° |
| 2026-04-16 20:37 | 38.47726 | -26.63801 | 17075 ft | 418 kts | 137° |
| 2026-04-16 20:38 | 38.45718 | -26.61101 | 17664 ft | 422 kts | 137° |
| 2026-04-16 20:38 | 38.43684 | -26.58367 | 18256 ft | 426 kts | 137° |
| 2026-04-16 20:38 | 38.41636 | -26.55610 | 18772 ft | 430 kts | 137° |
| 2026-04-16 20:38 | 38.39573 | -26.52831 | 19288 ft | 433 kts | 137° |
| 2026-04-16 20:39 | 38.37499 | -26.50041 | 19786 ft | 435 kts | 137° |
| 2026-04-16 20:39 | 38.35366 | -26.47180 | 20288 ft | 438 kts | 137° |
| 2026-04-16 20:39 | 38.33295 | -26.44411 | 20757 ft | 441 kts | 137° |
| 2026-04-16 20:39 | 38.31164 | -26.41566 | 21223 ft | 444 kts | 137° |
| 2026-04-16 20:40 | 38.29050 | -26.38744 | 21672 ft | 447 kts | 137° |
| 2026-04-16 20:40 | 38.26841 | -26.35962 | 22107 ft | 447 kts | 143° |
| 2026-04-16 20:40 | 38.24420 | -26.33465 | 22517 ft | 449 kts | 145° |
| 2026-04-16 20:40 | 38.21970 | -26.30969 | 22935 ft | 452 kts | 145° |
| 2026-04-16 20:41 | 38.19516 | -26.28463 | 23338 ft | 455 kts | 145° |
| 2026-04-16 20:41 | 38.17046 | -26.25934 | 23731 ft | 457 kts | 145° |
| 2026-04-16 20:41 | 38.14562 | -26.23394 | 24077 ft | 459 kts | 145° |
| 2026-04-16 20:41 | 38.12062 | -26.20845 | 24410 ft | 461 kts | 145° |
| 2026-04-16 20:42 | 38.09550 | -26.18286 | 24752 ft | 463 kts | 145° |
| 2026-04-16 20:42 | 38.07031 | -26.15721 | 25036 ft | 466 kts | 145° |
| 2026-04-16 20:42 | 38.04501 | -26.13145 | 25364 ft | 468 kts | 145° |
| 2026-04-16 20:42 | 38.01955 | -26.10556 | 25676 ft | 469 kts | 145° |
| 2026-04-16 20:43 | 37.99404 | -26.07964 | 25983 ft | 471 kts | 145° |
| 2026-04-16 20:43 | 37.96835 | -26.05360 | 26285 ft | 473 kts | 146° |
| 2026-04-16 20:43 | 37.94258 | -26.02753 | 26575 ft | 474 kts | 146° |
| 2026-04-16 20:43 | 37.91671 | -26.00137 | 26858 ft | 476 kts | 146° |
| 2026-04-16 20:44 | 37.89109 | -25.97544 | 27103 ft | 478 kts | 146° |
| 2026-04-16 20:44 | 37.86472 | -25.94873 | 27375 ft | 479 kts | 146° |
| 2026-04-16 20:44 | 37.83904 | -25.92272 | 27670 ft | 480 kts | 146° |
| 2026-04-16 20:44 | 37.81299 | -25.89637 | 27921 ft | 481 kts | 146° |
| 2026-04-16 20:45 | 37.78676 | -25.86989 | 28208 ft | 481 kts | 146° |
| 2026-04-16 20:45 | 37.76067 | -25.84362 | 28557 ft | 479 kts | 146° |
| 2026-04-16 20:45 | 37.73457 | -25.81738 | 28910 ft | 478 kts | 146° |
| 2026-04-16 20:45 | 37.70855 | -25.79126 | 29268 ft | 477 kts | 146° |
| 2026-04-16 20:46 | 37.68262 | -25.76529 | 29615 ft | 476 kts | 147° |
| 2026-04-16 20:46 | 37.65703 | -25.73886 | 29971 ft | 477 kts | 142° |
| 2026-04-16 20:46 | 37.63412 | -25.70819 | 30308 ft | 483 kts | 133° |
| 2026-04-16 20:46 | 37.61513 | -25.67296 | 30610 ft | 488 kts | 123° |
| 2026-04-16 20:47 | 37.60085 | -25.63457 | 30883 ft | 492 kts | 114° |
| 2026-04-16 20:47 | 37.59005 | -25.59290 | 31186 ft | 493 kts | 111° |
| 2026-04-16 20:47 | 37.57965 | -25.55179 | 31455 ft | 492 kts | 111° |
| 2026-04-16 20:47 | 37.56924 | -25.51123 | 31737 ft | 492 kts | 111° |
| 2026-04-16 20:48 | 37.55862 | -25.47016 | 32029 ft | 491 kts | 111° |
| 2026-04-16 20:48 | 37.54805 | -25.42929 | 32322 ft | 491 kts | 111° |
| 2026-04-16 20:48 | 37.53746 | -25.38837 | 32613 ft | 490 kts | 111° |
| 2026-04-16 20:48 | 37.52691 | -25.34756 | 32900 ft | 490 kts | 112° |
| 2026-04-16 20:49 | 37.51638 | -25.30683 | 33191 ft | 489 kts | 112° |
| 2026-04-16 20:49 | 37.50587 | -25.26611 | 33481 ft | 489 kts | 112° |
| 2026-04-16 20:49 | 37.49536 | -25.22539 | 33774 ft | 488 kts | 112° |
| 2026-04-16 20:49 | 37.48487 | -25.18471 | 34057 ft | 488 kts | 112° |
| 2026-04-16 20:50 | 37.47438 | -25.14413 | 34257 ft | 487 kts | 112° |
| 2026-04-16 20:50 | 37.46386 | -25.10361 | 34547 ft | 487 kts | 112° |
| 2026-04-16 20:50 | 37.45333 | -25.06314 | 34781 ft | 487 kts | 112° |
| 2026-04-16 20:50 | 37.44272 | -25.02245 | 35018 ft | 487 kts | 112° |
| 2026-04-16 20:51 | 37.43213 | -24.98194 | 35263 ft | 486 kts | 112° |
| 2026-04-16 20:51 | 37.42157 | -24.94160 | 35505 ft | 486 kts | 112° |
| 2026-04-16 20:51 | 37.41096 | -24.90113 | 35719 ft | 485 kts | 112° |
| 2026-04-16 20:51 | 37.40038 | -24.86089 | 35935 ft | 485 kts | 112° |
| 2026-04-16 20:52 | 37.38978 | -24.82058 | 36145 ft | 485 kts | 112° |
| 2026-04-16 20:52 | 37.37916 | -24.78029 | 36346 ft | 485 kts | 112° |
| 2026-04-16 20:52 | 37.36867 | -24.74061 | 36546 ft | 484 kts | 112° |
| 2026-04-16 20:52 | 37.35805 | -24.70047 | 36740 ft | 484 kts | 112° |
| 2026-04-16 20:53 | 37.34740 | -24.66018 | 36941 ft | 483 kts | 112° |
| 2026-04-16 20:53 | 37.33681 | -24.62011 | 37123 ft | 482 kts | 112° |
| 2026-04-16 20:53 | 37.31545 | -24.53963 | 37211 ft | 485 kts | 112° |
| 2026-04-16 20:54 | 37.29414 | -24.45970 | 37214 ft | 486 kts | 112° |
| 2026-04-16 20:54 | 37.27261 | -24.37907 | 37218 ft | 486 kts | 112° |
| 2026-04-16 20:55 | 37.25102 | -24.29855 | 37218 ft | 486 kts | 113° |
| 2026-04-16 20:55 | 37.22935 | -24.21815 | 37198 ft | 486 kts | 112° |
| 2026-04-16 20:56 | 37.20776 | -24.13828 | 37208 ft | 486 kts | 112° |
| 2026-04-16 20:56 | 37.18605 | -24.05801 | 37221 ft | 486 kts | 112° |
| 2026-04-16 20:57 | 37.16428 | -23.97773 | 37227 ft | 486 kts | 112° |
| 2026-04-16 20:57 | 37.14248 | -23.89757 | 37233 ft | 486 kts | 112° |
| 2026-04-16 20:58 | 37.12060 | -23.81735 | 37234 ft | 486 kts | 113° |
| 2026-04-16 20:58 | 37.09862 | -23.73732 | 37215 ft | 485 kts | 112° |
| 2026-04-16 20:59 | 37.07675 | -23.65757 | 37228 ft | 484 kts | 112° |
| 2026-04-16 20:59 | 37.05478 | -23.57781 | 37229 ft | 484 kts | 112° |
| 2026-04-16 21:00 | 37.03282 | -23.49825 | 37229 ft | 483 kts | 112° |
| 2026-04-16 21:00 | 37.01074 | -23.41874 | 37233 ft | 483 kts | 112° |
| 2026-04-16 21:01 | 36.98880 | -23.33976 | 37235 ft | 483 kts | 112° |
| 2026-04-16 21:01 | 36.96662 | -23.26037 | 37224 ft | 483 kts | 112° |
| 2026-04-16 21:02 | 36.94442 | -23.18112 | 37231 ft | 483 kts | 112° |
| 2026-04-16 21:03 | 36.91102 | -23.06209 | 37242 ft | 483 kts | 112° |
| 2026-04-16 21:03 | 36.88881 | -22.98280 | 37245 ft | 483 kts | 112° |
| 2026-04-16 21:04 | 36.86643 | -22.90376 | 37246 ft | 482 kts | 112° |
| 2026-04-16 21:04 | 36.84397 | -22.82479 | 37227 ft | 482 kts | 112° |
| 2026-04-16 21:05 | 36.82155 | -22.74583 | 37229 ft | 482 kts | 112° |
| 2026-04-16 21:05 | 36.79926 | -22.66756 | 37236 ft | 482 kts | 112° |
| 2026-04-16 21:06 | 36.77681 | -22.58877 | 37240 ft | 482 kts | 112° |
| 2026-04-16 21:06 | 36.75422 | -22.51009 | 37240 ft | 481 kts | 112° |
| 2026-04-16 21:07 | 36.73163 | -22.43158 | 37235 ft | 481 kts | 112° |
| 2026-04-16 21:07 | 36.70899 | -22.35315 | 37228 ft | 481 kts | 112° |
| 2026-04-16 21:08 | 36.68630 | -22.27474 | 37235 ft | 480 kts | 112° |
| 2026-04-16 21:08 | 36.66359 | -22.19648 | 37240 ft | 480 kts | 112° |
| 2026-04-16 21:09 | 36.64084 | -22.11825 | 37236 ft | 480 kts | 112° |
| 2026-04-16 21:09 | 36.62186 | -22.05308 | 37241 ft | 480 kts | 112° |
| 2026-04-16 21:10 | 36.59901 | -21.97497 | 37242 ft | 480 kts | 112° |
| 2026-04-16 21:10 | 36.57607 | -21.89685 | 37225 ft | 480 kts | 112° |
| 2026-04-16 21:11 | 36.55307 | -21.81871 | 37230 ft | 481 kts | 112° |
| 2026-04-16 21:11 | 36.53002 | -21.74066 | 37235 ft | 481 kts | 112° |
| 2026-04-16 21:12 | 36.50711 | -21.66306 | 37237 ft | 481 kts | 112° |
| 2026-04-16 21:12 | 36.48405 | -21.58503 | 37241 ft | 481 kts | 112° |
| 2026-04-16 21:13 | 36.46086 | -21.50708 | 37244 ft | 481 kts | 112° |
| 2026-04-16 21:13 | 36.43762 | -21.42921 | 37247 ft | 480 kts | 112° |
| 2026-04-16 21:14 | 36.41437 | -21.35151 | 37245 ft | 480 kts | 112° |
| 2026-04-16 21:14 | 36.39107 | -21.27374 | 37249 ft | 480 kts | 112° |
| 2026-04-16 21:15 | 36.36769 | -21.19595 | 37247 ft | 480 kts | 112° |
| 2026-04-16 21:15 | 36.35120 | -21.11594 | 37252 ft | 483 kts | 91° |
| 2026-04-16 21:16 | 36.35958 | -21.03316 | 37245 ft | 484 kts | 81° |
| 2026-04-16 21:16 | 36.37062 | -20.95085 | 37239 ft | 484 kts | 81° |
| 2026-04-16 21:17 | 36.38152 | -20.86898 | 37241 ft | 484 kts | 81° |
| 2026-04-16 21:17 | 36.39237 | -20.78635 | 37237 ft | 484 kts | 81° |
| 2026-04-16 21:18 | 36.40302 | -20.70377 | 37241 ft | 485 kts | 81° |
| 2026-04-16 21:18 | 36.41360 | -20.62120 | 37249 ft | 485 kts | 81° |
| 2026-04-16 21:19 | 36.42420 | -20.53844 | 37244 ft | 485 kts | 81° |
| 2026-04-16 21:19 | 36.43482 | -20.45570 | 37251 ft | 485 kts | 81° |
| 2026-04-16 21:20 | 36.44527 | -20.37296 | 37257 ft | 485 kts | 81° |
| 2026-04-16 21:20 | 36.45568 | -20.29017 | 37258 ft | 485 kts | 81° |
| 2026-04-16 21:21 | 36.46610 | -20.20734 | 37261 ft | 485 kts | 81° |
| 2026-04-16 21:21 | 36.47650 | -20.12463 | 37258 ft | 485 kts | 82° |
| 2026-04-16 21:22 | 36.48664 | -20.04237 | 37261 ft | 484 kts | 82° |
| 2026-04-16 21:22 | 36.49678 | -19.95951 | 37264 ft | 485 kts | 82° |
| 2026-04-16 21:23 | 36.50700 | -19.87664 | 37264 ft | 485 kts | 82° |
| 2026-04-16 21:23 | 36.51716 | -19.79373 | 37267 ft | 485 kts | 82° |
| 2026-04-16 21:24 | 36.52722 | -19.71087 | 37269 ft | 484 kts | 82° |
| 2026-04-16 21:24 | 36.53707 | -19.62871 | 37270 ft | 484 kts | 82° |
| 2026-04-16 21:25 | 36.54690 | -19.54594 | 37255 ft | 483 kts | 82° |
| 2026-04-16 21:25 | 36.55670 | -19.46316 | 37256 ft | 483 kts | 82° |
| 2026-04-16 21:26 | 36.56661 | -19.38041 | 37261 ft | 483 kts | 82° |
| 2026-04-16 21:26 | 36.57644 | -19.29781 | 37262 ft | 483 kts | 82° |
| 2026-04-16 21:27 | 36.58609 | -19.21500 | 37264 ft | 483 kts | 82° |
| 2026-04-16 21:27 | 36.59564 | -19.13222 | 37264 ft | 483 kts | 82° |
| 2026-04-16 21:28 | 36.60509 | -19.04949 | 37261 ft | 483 kts | 82° |
| 2026-04-16 21:28 | 36.61458 | -18.96674 | 37264 ft | 483 kts | 82° |
| 2026-04-16 21:29 | 36.62410 | -18.88447 | 37268 ft | 483 kts | 82° |
| 2026-04-16 21:29 | 36.63357 | -18.80164 | 37269 ft | 483 kts | 83° |
| 2026-04-16 21:30 | 36.64283 | -18.71870 | 37283 ft | 483 kts | 83° |
| 2026-04-16 21:30 | 36.65199 | -18.63569 | 37276 ft | 484 kts | 83° |
| 2026-04-16 21:31 | 36.66120 | -18.55277 | 37272 ft | 483 kts | 83° |
| 2026-04-16 21:31 | 36.67035 | -18.46975 | 37278 ft | 483 kts | 83° |
| 2026-04-16 21:32 | 36.67946 | -18.38671 | 37277 ft | 483 kts | 83° |
| 2026-04-16 21:32 | 36.68847 | -18.30369 | 37287 ft | 483 kts | 83° |
| 2026-04-16 21:33 | 36.69748 | -18.22065 | 37275 ft | 483 kts | 83° |
| 2026-04-16 21:33 | 36.70635 | -18.13810 | 37280 ft | 483 kts | 83° |
| 2026-04-16 21:34 | 36.71520 | -18.05510 | 37271 ft | 483 kts | 83° |
| 2026-04-16 21:34 | 36.72405 | -17.97227 | 37280 ft | 482 kts | 83° |
| 2026-04-16 21:35 | 36.73278 | -17.88931 | 37283 ft | 482 kts | 83° |
| 2026-04-16 21:35 | 36.74138 | -17.80644 | 37273 ft | 482 kts | 83° |
| 2026-04-16 21:36 | 36.75002 | -17.72344 | 37268 ft | 482 kts | 83° |
| 2026-04-16 21:36 | 36.75860 | -17.64061 | 37280 ft | 482 kts | 83° |
| 2026-04-16 21:37 | 36.76712 | -17.55775 | 37285 ft | 481 kts | 83° |
| 2026-04-16 21:37 | 36.77551 | -17.47493 | 37277 ft | 481 kts | 83° |
| 2026-04-16 21:38 | 36.78391 | -17.39203 | 37283 ft | 481 kts | 84° |
| 2026-04-16 21:38 | 36.79217 | -17.30971 | 37278 ft | 481 kts | 84° |
| 2026-04-16 21:39 | 36.80038 | -17.22686 | 37275 ft | 480 kts | 84° |
| 2026-04-16 21:39 | 36.80855 | -17.14412 | 37278 ft | 480 kts | 84° |
| 2026-04-16 21:40 | 36.81669 | -17.06145 | 37271 ft | 480 kts | 84° |
| 2026-04-16 21:40 | 36.82468 | -16.97886 | 37277 ft | 479 kts | 84° |
| 2026-04-16 21:41 | 36.83266 | -16.89668 | 37270 ft | 479 kts | 84° |
| 2026-04-16 21:41 | 36.84059 | -16.81403 | 37268 ft | 479 kts | 84° |
| 2026-04-16 21:42 | 36.84848 | -16.73146 | 37270 ft | 479 kts | 84° |
| 2026-04-16 21:42 | 36.85634 | -16.64875 | 37269 ft | 479 kts | 84° |
| 2026-04-16 21:43 | 36.86409 | -16.56618 | 37261 ft | 479 kts | 84° |
| 2026-04-16 21:43 | 36.87177 | -16.48345 | 37269 ft | 479 kts | 84° |
| 2026-04-16 21:44 | 36.87943 | -16.40088 | 37264 ft | 479 kts | 84° |
| 2026-04-16 21:44 | 36.88699 | -16.31813 | 37256 ft | 479 kts | 85° |
| 2026-04-16 21:45 | 36.89448 | -16.23595 | 37264 ft | 479 kts | 85° |
| 2026-04-16 21:45 | 36.90197 | -16.15324 | 37263 ft | 479 kts | 85° |
| 2026-04-16 21:46 | 36.90932 | -16.07053 | 37259 ft | 479 kts | 85° |
| 2026-04-16 21:46 | 36.91667 | -15.98789 | 37254 ft | 479 kts | 85° |
| 2026-04-16 21:47 | 36.92406 | -15.90519 | 37251 ft | 479 kts | 85° |
| 2026-04-16 21:47 | 36.93129 | -15.82249 | 37253 ft | 478 kts | 85° |
| 2026-04-16 21:48 | 36.93844 | -15.73981 | 37256 ft | 478 kts | 85° |
| 2026-04-16 21:48 | 36.94555 | -15.65704 | 37249 ft | 479 kts | 85° |
| 2026-04-16 21:49 | 36.95263 | -15.57429 | 37242 ft | 479 kts | 85° |
| 2026-04-16 21:49 | 36.95958 | -15.49208 | 37254 ft | 479 kts | 85° |
| 2026-04-16 21:50 | 36.96652 | -15.40927 | 37253 ft | 479 kts | 85° |
| 2026-04-16 21:50 | 36.97347 | -15.32635 | 37248 ft | 479 kts | 85° |
| 2026-04-16 21:51 | 36.98034 | -15.24342 | 37258 ft | 479 kts | 86° |
| 2026-04-16 21:51 | 36.98708 | -15.16064 | 37258 ft | 479 kts | 86° |
| 2026-04-16 21:52 | 36.99380 | -15.07769 | 37253 ft | 479 kts | 86° |
| 2026-04-16 21:52 | 37.00156 | -14.99477 | 37253 ft | 480 kts | 79° |
| 2026-04-16 21:53 | 37.01807 | -14.91371 | 37245 ft | 481 kts | 76° |
| 2026-04-16 21:53 | 37.03501 | -14.83282 | 37251 ft | 480 kts | 76° |
| 2026-04-16 21:54 | 37.04900 | -14.76552 | 37254 ft | 480 kts | 76° |
| 2026-04-16 21:54 | 37.06848 | -14.67142 | 37256 ft | 480 kts | 76° |
| 2026-04-16 21:55 | 37.08247 | -14.60361 | 37253 ft | 480 kts | 76° |
| 2026-04-16 21:55 | 37.09914 | -14.52255 | 37253 ft | 480 kts | 76° |
| 2026-04-16 21:56 | 37.11569 | -14.44152 | 37258 ft | 480 kts | 77° |
| 2026-04-16 21:56 | 37.13224 | -14.36048 | 37258 ft | 480 kts | 77° |
| 2026-04-16 21:57 | 37.14867 | -14.27945 | 37259 ft | 479 kts | 77° |
| 2026-04-16 21:57 | 37.16117 | -14.21763 | 37257 ft | 479 kts | 77° |
| 2026-04-16 21:58 | 37.17764 | -14.13605 | 37243 ft | 480 kts | 77° |
| 2026-04-16 21:58 | 37.19383 | -14.05545 | 37249 ft | 480 kts | 77° |
| 2026-04-16 21:59 | 37.21009 | -13.97415 | 37249 ft | 480 kts | 77° |
| 2026-04-16 21:59 | 37.22637 | -13.89284 | 37252 ft | 480 kts | 77° |
| 2026-04-16 22:00 | 37.24249 | -13.81155 | 37253 ft | 480 kts | 77° |
| 2026-04-16 22:00 | 37.25860 | -13.73018 | 37256 ft | 480 kts | 77° |
| 2026-04-16 22:01 | 37.27468 | -13.64891 | 37257 ft | 480 kts | 77° |
| 2026-04-16 22:01 | 37.29070 | -13.56758 | 37256 ft | 480 kts | 77° |
| 2026-04-16 22:02 | 37.30666 | -13.48625 | 37249 ft | 479 kts | 77° |
| 2026-04-16 22:02 | 37.32253 | -13.40495 | 37254 ft | 479 kts | 77° |
| 2026-04-16 22:03 | 37.33833 | -13.32364 | 37254 ft | 478 kts | 77° |
| 2026-04-16 22:03 | 37.35400 | -13.24245 | 37257 ft | 478 kts | 77° |
| 2026-04-16 22:04 | 37.36955 | -13.16168 | 37253 ft | 478 kts | 77° |
| 2026-04-16 22:04 | 37.38511 | -13.08043 | 37248 ft | 478 kts | 77° |
| 2026-04-16 22:05 | 37.40080 | -12.99867 | 37248 ft | 477 kts | 77° |
| 2026-04-16 22:05 | 37.41620 | -12.91802 | 37254 ft | 477 kts | 78° |
| 2026-04-16 22:06 | 37.43156 | -12.83660 | 37249 ft | 477 kts | 78° |
| 2026-04-16 22:06 | 37.45455 | -12.71464 | 37242 ft | 477 kts | 78° |
| 2026-04-16 22:07 | 37.46981 | -12.63335 | 37251 ft | 477 kts | 78° |
| 2026-04-16 22:07 | 37.48504 | -12.55196 | 37251 ft | 477 kts | 78° |
| 2026-04-16 22:08 | 37.50020 | -12.47053 | 37246 ft | 477 kts | 78° |
| 2026-04-16 22:08 | 37.51524 | -12.38961 | 37243 ft | 477 kts | 78° |
| 2026-04-16 22:09 | 37.53018 | -12.30823 | 37258 ft | 476 kts | 78° |
| 2026-04-16 22:09 | 37.54508 | -12.22693 | 37256 ft | 475 kts | 78° |
| 2026-04-16 22:10 | 37.55993 | -12.14593 | 37255 ft | 475 kts | 78° |
| 2026-04-16 22:10 | 37.57475 | -12.06490 | 37254 ft | 474 kts | 78° |
| 2026-04-16 22:11 | 37.58950 | -11.98392 | 37257 ft | 473 kts | 79° |
| 2026-04-16 22:11 | 37.60412 | -11.90313 | 37255 ft | 472 kts | 79° |
| 2026-04-16 22:12 | 37.61862 | -11.82255 | 37254 ft | 471 kts | 79° |
| 2026-04-16 22:12 | 37.63306 | -11.74191 | 37241 ft | 471 kts | 79° |
| 2026-04-16 22:13 | 37.64745 | -11.66135 | 37247 ft | 470 kts | 79° |
| 2026-04-16 22:13 | 37.66178 | -11.58120 | 37232 ft | 470 kts | 79° |
| 2026-04-16 22:14 | 37.67618 | -11.50028 | 37231 ft | 469 kts | 79° |
| 2026-04-16 22:14 | 37.69025 | -11.42037 | 37228 ft | 469 kts | 79° |
| 2026-04-16 22:15 | 37.70426 | -11.33990 | 37229 ft | 469 kts | 79° |
| 2026-04-16 22:15 | 37.71826 | -11.25956 | 37226 ft | 468 kts | 79° |
| 2026-04-16 22:16 | 37.73229 | -11.17932 | 37236 ft | 467 kts | 79° |
| 2026-04-16 22:16 | 37.74627 | -11.09918 | 37238 ft | 467 kts | 79° |
| 2026-04-16 22:17 | 37.76014 | -11.01910 | 37236 ft | 466 kts | 79° |
| 2026-04-16 22:17 | 37.77385 | -10.93916 | 37220 ft | 466 kts | 79° |
| 2026-04-16 22:18 | 37.78744 | -10.85914 | 36949 ft | 465 kts | 79° |
| 2026-04-16 22:18 | 37.79424 | -10.81925 | 36733 ft | 464 kts | 79° |
| 2026-04-16 22:18 | 37.80105 | -10.77932 | 36230 ft | 465 kts | 79° |
| 2026-04-16 22:19 | 37.80789 | -10.73928 | 35724 ft | 466 kts | 78° |
| 2026-04-16 22:19 | 37.81780 | -10.70034 | 35235 ft | 467 kts | 65° |
| 2026-04-16 22:19 | 37.83486 | -10.66529 | 34741 ft | 469 kts | 54° |
| 2026-04-16 22:19 | 37.85435 | -10.63198 | 34268 ft | 472 kts | 53° |
| 2026-04-16 22:20 | 37.87407 | -10.59874 | 33735 ft | 473 kts | 53° |
| 2026-04-16 22:20 | 37.89397 | -10.56552 | 33195 ft | 474 kts | 53° |
| 2026-04-16 22:20 | 37.91397 | -10.53212 | 32590 ft | 475 kts | 53° |
| 2026-04-16 22:20 | 37.93391 | -10.49866 | 31922 ft | 477 kts | 54° |
| 2026-04-16 22:21 | 37.95364 | -10.46538 | 31232 ft | 479 kts | 54° |
| 2026-04-16 22:21 | 37.97364 | -10.43149 | 30480 ft | 480 kts | 54° |
| 2026-04-16 22:21 | 37.99363 | -10.39744 | 29646 ft | 482 kts | 54° |
| 2026-04-16 22:21 | 38.01365 | -10.36331 | 28796 ft | 483 kts | 54° |
| 2026-04-16 22:22 | 38.03519 | -10.33129 | 27961 ft | 470 kts | 44° |
| 2026-04-16 22:22 | 38.05976 | -10.30525 | 27162 ft | 452 kts | 37° |
| 2026-04-16 22:22 | 38.08512 | -10.28253 | 26308 ft | 439 kts | 34° |
| 2026-04-16 22:22 | 38.11023 | -10.26146 | 25455 ft | 428 kts | 33° |
| 2026-04-16 22:23 | 38.13390 | -10.23935 | 24627 ft | 417 kts | 44° |
| 2026-04-16 22:23 | 38.15202 | -10.21130 | 23829 ft | 406 kts | 60° |
| 2026-04-16 22:23 | 38.16623 | -10.18076 | 22891 ft | 398 kts | 60° |
| 2026-04-16 22:23 | 38.18008 | -10.15056 | 21959 ft | 393 kts | 61° |
| 2026-04-16 22:24 | 38.19367 | -10.12079 | 21082 ft | 387 kts | 60° |
| 2026-04-16 22:24 | 38.20712 | -10.09132 | 20208 ft | 382 kts | 60° |
| 2026-04-16 22:24 | 38.22035 | -10.06230 | 19369 ft | 377 kts | 60° |
| 2026-04-16 22:24 | 38.23346 | -10.03354 | 18539 ft | 374 kts | 60° |
| 2026-04-16 22:25 | 38.24644 | -10.00505 | 17724 ft | 368 kts | 60° |
| 2026-04-16 22:25 | 38.25908 | -9.97730 | 17318 ft | 360 kts | 60° |
| 2026-04-16 22:25 | 38.27161 | -9.94983 | 16831 ft | 359 kts | 60° |
| 2026-04-16 22:25 | 38.28417 | -9.92229 | 16344 ft | 359 kts | 59° |
| 2026-04-16 22:26 | 38.29669 | -9.89477 | 15858 ft | 360 kts | 60° |
| 2026-04-16 22:26 | 38.30920 | -9.86720 | 15357 ft | 360 kts | 60° |
| 2026-04-16 22:26 | 38.32171 | -9.83960 | 14896 ft | 360 kts | 59° |
| 2026-04-16 22:26 | 38.33407 | -9.81235 | 14404 ft | 360 kts | 59° |
| 2026-04-16 22:27 | 38.34654 | -9.78475 | 13914 ft | 360 kts | 59° |
| 2026-04-16 22:27 | 38.35898 | -9.75714 | 13399 ft | 358 kts | 60° |
| 2026-04-16 22:27 | 38.37137 | -9.72969 | 12911 ft | 356 kts | 59° |
| 2026-04-16 22:27 | 38.38374 | -9.70236 | 12435 ft | 354 kts | 60° |
| 2026-04-16 22:28 | 38.39578 | -9.67574 | 11952 ft | 339 kts | 60° |
| 2026-04-16 22:28 | 38.40731 | -9.65020 | 11508 ft | 325 kts | 60° |
| 2026-04-16 22:28 | 38.41834 | -9.62573 | 11071 ft | 313 kts | 60° |
| 2026-04-16 22:28 | 38.42890 | -9.60226 | 10873 ft | 293 kts | 60° |
| 2026-04-16 22:29 | 38.43863 | -9.58061 | 10782 ft | 273 kts | 60° |
| 2026-04-16 22:29 | 38.44812 | -9.55945 | 10106 ft | 278 kts | 60° |
| 2026-04-16 22:29 | 38.45775 | -9.53803 | 9536 ft | 276 kts | 61° |
| 2026-04-16 22:29 | 38.46727 | -9.51687 | 9142 ft | 275 kts | 61° |
| 2026-04-16 22:30 | 38.47682 | -9.49563 | 8763 ft | 275 kts | 62° |
| 2026-04-16 22:30 | 38.48629 | -9.47448 | 8395 ft | 274 kts | 62° |
| 2026-04-16 22:30 | 38.49573 | -9.45340 | 8022 ft | 273 kts | 61° |
| 2026-04-16 22:30 | 38.50516 | -9.43236 | 7655 ft | 272 kts | 62° |
| 2026-04-16 22:31 | 38.51453 | -9.41142 | 7292 ft | 271 kts | 61° |
| 2026-04-16 22:31 | 38.52387 | -9.39059 | 6925 ft | 270 kts | 61° |
| 2026-04-16 22:31 | 38.53314 | -9.36982 | 6554 ft | 268 kts | 62° |
| 2026-04-16 22:31 | 38.54235 | -9.34918 | 6170 ft | 266 kts | 61° |
| 2026-04-16 22:32 | 38.55149 | -9.32869 | 5809 ft | 264 kts | 62° |
| 2026-04-16 22:32 | 38.56055 | -9.30834 | 5361 ft | 265 kts | 62° |
| 2026-04-16 22:32 | 38.56942 | -9.28844 | 4939 ft | 255 kts | 61° |
| 2026-04-16 22:32 | 38.57799 | -9.26928 | 4581 ft | 242 kts | 61° |
| 2026-04-16 22:33 | 38.58615 | -9.25105 | 4236 ft | 231 kts | 59° |
| 2026-04-16 22:33 | 38.59656 | -9.23608 | 3904 ft | 222 kts | 35° |
| 2026-04-16 22:33 | 38.61024 | -9.22710 | 3617 ft | 221 kts | 23° |
| 2026-04-16 22:33 | 38.62440 | -9.21962 | 3344 ft | 219 kts | 23° |
| 2026-04-16 22:34 | 38.63847 | -9.21216 | 3043 ft | 218 kts | 23° |
| 2026-04-16 22:34 | 38.65240 | -9.20474 | 2762 ft | 216 kts | 23° |
| 2026-04-16 22:34 | 38.66618 | -9.19740 | 2474 ft | 214 kts | 23° |
| 2026-04-16 22:34 | 38.67984 | -9.19013 | 2205 ft | 212 kts | 22° |
| 2026-04-16 22:35 | 38.69337 | -9.18291 | 1909 ft | 208 kts | 22° |
| 2026-04-16 22:35 | 38.70634 | -9.17599 | 1646 ft | 195 kts | 21° |
| 2026-04-16 22:35 | 38.71842 | -9.16954 | 1422 ft | 180 kts | 22° |
| 2026-04-16 22:35 | 38.72958 | -9.16358 | 1156 ft | 166 kts | 21° |
| 2026-04-16 22:36 | 38.73973 | -9.15816 | 942 ft | 151 kts | 21° |
| 2026-04-16 22:36 | 38.74898 | -9.15322 | 756 ft | 138 kts | 21° |
| 2026-04-16 22:36 | 38.75752 | -9.14859 | 570 ft | 131 kts | 19° |
| 2026-04-16 22:36 | 38.76585 | -9.14425 | 397 ft | 128 kts | 18° |
| 2026-04-16 22:37 | 38.77360 | -9.14015 | 361 ft | 102 kts | 21° |
| 2026-04-16 22:37 | 38.77857 | -9.13744 | 356 ft | 53 kts | 22° |
| 2026-04-16 22:37 | 38.78148 | -9.13586 | 359 ft | 33 kts | 23° |
| 2026-04-16 22:37 | 38.78293 | -9.13462 | 359 ft | 20 kts | 46° |
| 2026-04-16 22:38 | 38.78361 | -9.13367 | 353 ft | 13 kts | 51° |
| 2026-04-16 22:38 | 38.78351 | -9.13271 | 359 ft | 12 kts | 151° |
| 2026-04-16 22:38 | 38.78274 | -9.13286 | 353 ft | 11 kts | 201° |
| 2026-04-16 22:38 | 38.78206 | -9.13324 | 355 ft | 11 kts | 203° |
| 2026-04-16 22:39 | 38.78099 | -9.13380 | 352 ft | 20 kts | 201° |
| 2026-04-16 22:39 | 38.77979 | -9.13401 | 355 ft | 17 kts | 172° |
| 2026-04-16 22:39 | 38.77864 | -9.13373 | 352 ft | 16 kts | 168° |
| 2026-04-16 22:39 | 38.77755 | -9.13345 | 352 ft | 16 kts | 169° |
| 2026-04-16 22:40 | 38.77650 | -9.13323 | 352 ft | 15 kts | 177° |
| 2026-04-16 22:40 | 38.77552 | -9.13312 | 353 ft | 14 kts | 169° |
| 2026-04-16 22:40 | 38.77461 | -9.13287 | 354 ft | 13 kts | 167° |
| 2026-04-16 22:40 | 38.77359 | -9.13263 | 356 ft | 21 kts | 171° |
| 2026-04-16 22:41 | 38.77262 | -9.13240 | 351 ft | 18 kts | 168° |
| 2026-04-16 22:41 | 38.77142 | -9.13209 | 351 ft | 17 kts | 168° |
| 2026-04-16 22:41 | 38.77031 | -9.13178 | 351 ft | 16 kts | 168° |
| 2026-04-16 22:41 | 38.76945 | -9.13156 | 354 ft | 6 kts | 168° |
| 2026-04-16 22:42 | 38.76931 | -9.13120 | 353 ft | 5 kts | 91° |
| 2026-04-16 22:42 | 38.76936 | -9.13081 | 359 ft | 4 kts | 79° |
| 2026-04-16 22:42 | 38.76938 | -9.13069 | 354 ft | 0 kts | 78° |